createdAt,value
2023-09-17T00:02:15.762Z,101111.13
2023-09-17T00:04:43.296Z,101113.63
2023-09-17T00:07:11.147Z,101113.63
2023-09-17T00:09:38.701Z,101112.75
2023-09-17T00:12:06.208Z,101117.88
2023-09-17T00:14:33.588Z,101114.25
2023-09-17T00:17:01.000Z,101109.13
2023-09-17T00:19:28.659Z,101115.91
2023-09-17T00:21:56.067Z,101118.41
2023-09-17T00:24:23.601Z,101125.16
2023-09-17T00:26:50.834Z,101125.06
2023-09-17T00:29:18.246Z,101126.75
2023-09-17T00:31:45.612Z,101127.56
2023-09-17T00:34:13.041Z,101129.25
2023-09-17T00:36:40.430Z,101123.22
2023-09-17T00:39:08.165Z,101118.06
2023-09-17T00:41:35.463Z,101121.41
2023-09-17T00:44:03.380Z,101128.34
2023-09-17T00:46:32.167Z,101125.78
2023-09-17T00:49:00.992Z,101123.81
2023-09-17T00:51:29.344Z,101130.63
2023-09-17T00:53:57.580Z,101124.53
2023-09-17T00:56:26.676Z,101127.00
2023-09-17T00:58:55.417Z,101119.28
2023-09-17T01:01:23.356Z,101115.81
2023-09-17T01:03:51.482Z,101117.50
2023-09-17T01:06:19.839Z,101112.50
2023-09-17T01:08:48.053Z,101111.69
2023-09-17T01:11:15.905Z,101107.44
2023-09-17T01:13:59.910Z,101110.09
2023-09-17T01:16:28.091Z,101105.13
2023-09-17T01:18:55.592Z,101100.84
2023-09-17T01:21:31.162Z,101107.00
2023-09-17T01:24:15.366Z,101101.84
2023-09-17T01:26:45.898Z,101103.53
2023-09-17T01:29:22.617Z,101106.00
2023-09-17T01:57:03.067Z,101103.34
2023-09-17T01:59:30.624Z,101109.28
2023-09-17T02:01:57.989Z,101110.00
2023-09-17T02:04:25.643Z,101104.88
2023-09-17T02:06:55.269Z,101103.97
2023-09-17T02:09:22.898Z,101110.81
2023-09-17T02:11:50.947Z,101115.06
2023-09-17T02:14:18.264Z,101115.13
2023-09-17T02:16:45.626Z,101117.50
2023-09-17T02:19:13.089Z,101111.41
2023-09-17T02:21:41.412Z,101107.88
2023-09-17T02:24:09.144Z,101117.19
2023-09-17T02:26:36.456Z,101114.50
2023-09-17T02:29:04.661Z,101117.94
2023-09-17T02:31:32.518Z,101117.06
2023-09-17T02:34:00.298Z,101120.63
2023-09-17T02:36:27.771Z,101117.19
2023-09-17T02:38:55.081Z,101117.19
2023-09-17T02:41:23.023Z,101118.06
2023-09-17T02:43:50.447Z,101119.63
2023-09-17T02:46:19.578Z,101121.31
2023-09-17T02:48:48.863Z,101122.91
2023-09-17T02:51:16.532Z,101126.28
2023-09-17T02:53:43.946Z,101121.03
2023-09-17T02:56:11.237Z,101126.84
2023-09-17T02:58:39.667Z,101126.78
2023-09-17T03:01:19.310Z,101128.38
2023-09-17T03:03:47.400Z,101132.63
2023-09-17T03:06:15.088Z,101129.16
2023-09-17T03:08:43.331Z,101132.53
2023-09-17T03:11:15.239Z,101136.00
2023-09-17T03:13:46.066Z,101135.88
2023-09-17T03:16:16.517Z,101138.44
2023-09-17T03:18:44.977Z,101137.66
2023-09-17T03:21:12.952Z,101138.63
2023-09-17T03:23:40.236Z,101141.28
2023-09-17T03:26:10.089Z,101144.03
2023-09-17T03:28:37.752Z,101140.78
2023-09-17T03:31:06.477Z,101137.44
2023-09-17T03:33:34.063Z,101138.22
2023-09-17T03:36:02.176Z,101145.22
2023-09-17T03:38:30.020Z,101142.88
2023-09-17T03:41:00.569Z,101148.09
2023-09-17T03:43:31.157Z,101144.72
2023-09-17T03:46:00.063Z,101136.22
2023-09-17T03:48:28.041Z,101136.28
2023-09-17T03:50:55.342Z,101139.16
2023-09-17T03:53:22.952Z,101134.19
2023-09-17T03:55:51.331Z,101137.91
2023-09-17T03:58:18.940Z,101144.28
2023-09-17T04:00:46.292Z,101142.97
2023-09-17T04:03:19.824Z,101142.63
2023-09-17T04:05:49.480Z,101143.94
2023-09-17T04:08:17.202Z,101134.97
2023-09-17T04:10:44.753Z,101138.88
2023-09-17T04:13:13.897Z,101141.94
2023-09-17T04:15:41.435Z,101138.19
2023-09-17T04:18:08.799Z,101138.81
2023-09-17T04:20:36.889Z,101135.38
2023-09-17T04:23:05.231Z,101143.28
2023-09-17T04:25:33.729Z,101140.97
2023-09-17T04:28:01.171Z,101132.66
2023-09-17T04:30:29.453Z,101138.00
2023-09-17T04:32:56.958Z,101137.28
2023-09-17T04:35:24.915Z,101134.66
2023-09-17T04:37:52.823Z,101139.81
2023-09-17T04:40:32.162Z,101142.50
2023-09-17T04:43:05.270Z,101135.56
2023-09-17T04:45:38.799Z,101143.19
2023-09-17T04:48:21.528Z,101143.97
2023-09-17T04:50:49.378Z,101143.81
2023-09-17T04:53:18.022Z,101142.75
2023-09-17T04:55:47.463Z,101145.97
2023-09-17T04:58:16.682Z,101134.53
2023-09-17T05:00:48.823Z,101130.78
2023-09-17T05:03:16.939Z,101127.97
2023-09-17T05:05:44.978Z,101126.81
2023-09-17T05:08:14.957Z,101124.75
2023-09-17T05:10:42.326Z,101127.84
2023-09-17T05:13:09.623Z,101128.38
2023-09-17T05:15:38.092Z,101129.75
2023-09-17T05:18:10.449Z,101133.75
2023-09-17T05:20:45.087Z,101124.94
2023-09-17T05:23:12.790Z,101135.22
2023-09-17T05:25:40.548Z,101133.31
2023-09-17T05:28:09.562Z,101130.56
2023-09-17T05:30:37.662Z,101132.94
2023-09-17T05:33:05.912Z,101130.13
2023-09-17T05:35:34.007Z,101126.34
2023-09-17T05:38:01.900Z,101131.19
2023-09-17T05:40:29.290Z,101130.88
2023-09-17T05:42:58.070Z,101127.00
2023-09-17T05:45:26.901Z,101130.19
2023-09-17T05:47:55.004Z,101127.34
2023-09-17T05:50:22.879Z,101127.06
2023-09-17T05:52:50.400Z,101124.16
2023-09-17T05:55:18.677Z,101119.50
2023-09-17T05:57:46.424Z,101114.56
2023-09-17T06:00:14.271Z,101112.16
2023-09-17T06:02:42.330Z,101111.72
2023-09-17T06:05:12.653Z,101110.81
2023-09-17T06:07:40.133Z,101106.66
2023-09-17T06:10:07.678Z,101109.44
2023-09-17T06:12:35.085Z,101109.25
2023-09-17T06:15:04.204Z,101112.59
2023-09-17T06:17:31.998Z,101106.84
2023-09-17T06:19:59.340Z,101109.91
2023-09-17T06:22:27.121Z,101108.03
2023-09-17T06:24:54.618Z,101101.75
2023-09-17T06:27:22.432Z,101104.13
2023-09-17T06:29:49.665Z,101101.00
2023-09-17T06:32:18.384Z,101105.47
2023-09-17T06:34:46.060Z,101095.28
2023-09-17T06:37:13.420Z,101100.06
2023-09-17T06:39:40.848Z,101094.31
2023-09-17T06:42:08.312Z,101094.56
2023-09-17T06:44:35.665Z,101089.38
2023-09-17T06:47:03.030Z,101089.53
2023-09-17T06:49:30.617Z,101092.38
2023-09-17T06:51:58.063Z,101089.84
2023-09-17T06:54:25.348Z,101095.97
2023-09-17T06:56:53.435Z,101086.38
2023-09-17T06:59:21.060Z,101082.00
2023-09-17T07:01:48.602Z,101076.72
2023-09-17T07:04:16.033Z,101073.09
2023-09-17T07:06:43.459Z,101072.97
2023-09-17T07:09:10.814Z,101070.06
2023-09-17T07:11:38.119Z,101071.53
2023-09-17T07:14:11.063Z,101064.94
2023-09-17T07:16:40.314Z,101069.75
2023-09-17T07:19:07.978Z,101063.94
2023-09-17T07:21:35.307Z,101059.16
2023-09-17T07:24:02.684Z,101052.94
2023-09-17T07:26:30.061Z,101061.44
2023-09-17T07:28:57.697Z,101060.84
2023-09-17T07:31:25.239Z,101050.06
2023-09-17T07:33:52.982Z,101063.16
2023-09-17T07:36:20.583Z,101050.69
2023-09-17T07:38:47.970Z,101046.97
2023-09-17T07:41:16.244Z,101042.41
2023-09-17T07:43:43.821Z,101038.56
2023-09-17T07:46:15.100Z,101034.81
2023-09-17T07:48:42.524Z,101040.53
2023-09-17T07:51:09.822Z,101034.63
2023-09-17T07:53:37.224Z,101022.22
2023-09-17T07:56:04.654Z,101035.94
2023-09-17T07:58:32.158Z,101023.69
2023-09-17T08:00:59.529Z,101022.69
2023-09-17T08:03:27.063Z,101017.00
2023-09-17T08:05:55.218Z,101025.31
2023-09-17T08:08:22.678Z,101019.72
2023-09-17T08:10:50.357Z,101006.16
2023-09-17T08:13:17.945Z,101003.91
2023-09-17T08:15:47.416Z,101003.34
2023-09-17T08:18:14.777Z,100995.78
2023-09-17T08:20:42.046Z,100993.88
2023-09-17T08:23:09.761Z,100989.66
2023-09-17T08:26:00.513Z,100992.28
2023-09-17T08:28:48.877Z,100988.50
2023-09-17T08:31:36.211Z,100985.66
2023-09-17T08:34:23.514Z,100987.31
2023-09-17T08:36:54.703Z,100976.22
2023-09-17T08:39:22.182Z,100979.47
2023-09-17T08:41:49.811Z,100974.03
2023-09-17T08:44:18.521Z,100977.34
2023-09-17T08:46:46.232Z,100975.53
2023-09-17T08:49:13.736Z,100967.09
2023-09-17T08:51:42.801Z,100966.72
2023-09-17T08:54:22.106Z,100953.34
2023-09-17T08:56:51.084Z,100966.38
2023-09-17T08:59:26.469Z,100957.84
2023-09-17T09:01:54.781Z,100959.63
2023-09-17T09:04:22.497Z,100951.97
2023-09-17T09:06:50.125Z,100946.91
2023-09-17T09:09:17.647Z,100945.09
2023-09-17T09:11:45.444Z,100942.56
2023-09-17T09:14:12.785Z,100945.34
2023-09-17T09:16:40.261Z,100940.69
2023-09-17T09:19:09.108Z,100933.31
2023-09-17T09:21:37.252Z,100936.84
2023-09-17T09:24:04.604Z,100931.88
2023-09-17T09:26:35.863Z,100929.13
2023-09-17T09:29:05.269Z,100923.38
2023-09-17T09:31:33.221Z,100920.88
2023-09-17T09:34:01.410Z,100920.44
2023-09-17T09:36:29.850Z,100920.06
2023-09-17T09:38:57.802Z,100925.06
2023-09-17T09:41:27.152Z,100917.88
2023-09-17T09:43:55.041Z,100916.97
2023-09-17T09:46:23.108Z,100922.47
2023-09-17T09:48:52.116Z,100911.50
2023-09-17T09:51:19.590Z,100918.72
2023-09-17T09:53:46.892Z,100916.25
2023-09-17T09:56:14.271Z,100911.38
2023-09-17T09:58:41.657Z,100913.03
2023-09-17T10:01:09.349Z,100906.25
2023-09-17T10:03:36.674Z,100913.81
2023-09-17T10:06:08.381Z,100907.34
2023-09-17T10:08:38.197Z,100904.00
2023-09-17T10:11:08.232Z,100898.19
2023-09-17T10:13:36.466Z,100893.91
2023-09-17T10:16:04.442Z,100900.75
2023-09-17T10:18:33.832Z,100894.56
2023-09-17T10:21:03.253Z,100892.38
2023-09-17T10:23:32.319Z,100895.97
2023-09-17T10:26:00.733Z,100886.16
2023-09-17T10:28:28.808Z,100880.25
2023-09-17T10:30:57.927Z,100878.28
2023-09-17T10:33:26.342Z,100884.09
2023-09-17T10:35:56.841Z,100880.09
2023-09-17T10:38:26.007Z,100876.22
2023-09-17T10:40:53.599Z,100872.03
2023-09-17T10:43:21.975Z,100878.25
2023-09-17T10:45:50.488Z,100871.28
2023-09-17T10:48:18.830Z,100865.47
2023-09-17T10:50:46.763Z,100860.00
2023-09-17T10:53:14.196Z,100854.72
2023-09-17T10:55:45.246Z,100855.34
2023-09-17T10:58:15.519Z,100858.72
2023-09-17T11:00:44.450Z,100843.00
2023-09-17T11:03:14.608Z,100847.59
2023-09-17T11:05:42.650Z,100839.09
2023-09-17T11:08:10.595Z,100839.53
2023-09-17T11:10:43.541Z,100840.88
2023-09-17T11:13:12.631Z,100835.94
2023-09-17T11:15:40.706Z,100829.38
2023-09-17T11:18:08.839Z,100833.91
2023-09-17T11:20:39.629Z,100830.84
2023-09-17T11:23:07.097Z,100828.28
2023-09-17T11:25:38.145Z,100826.38
2023-09-17T11:28:10.072Z,100829.69
2023-09-17T11:30:57.233Z,100823.59
2023-09-17T11:33:25.389Z,100810.78
2023-09-17T11:35:53.407Z,100814.59
2023-09-17T11:38:28.063Z,100810.41
2023-09-17T11:41:04.491Z,100807.84
2023-09-17T11:43:33.598Z,100801.97
2023-09-17T11:46:03.526Z,100805.34
2023-09-17T11:48:32.739Z,100801.94
2023-09-17T11:51:21.321Z,100793.97
2023-09-17T11:53:58.406Z,100797.53
2023-09-17T11:56:28.427Z,100791.72
2023-09-17T11:59:04.240Z,100799.19
2023-09-17T12:01:53.967Z,100782.06
2023-09-17T12:04:23.875Z,100792.84
2023-09-17T12:06:51.907Z,100782.38
2023-09-17T12:09:32.663Z,100783.31
2023-09-17T12:12:00.665Z,100768.66
2023-09-17T12:14:28.417Z,100763.88
2023-09-17T12:16:56.309Z,100758.88
2023-09-17T12:19:24.000Z,100758.97
2023-09-17T12:21:56.406Z,100758.69
2023-09-17T12:24:36.075Z,100749.63
2023-09-17T12:27:07.865Z,100740.53
2023-09-17T12:29:37.072Z,100749.59
2023-09-17T12:32:05.190Z,100743.38
2023-09-17T12:34:35.864Z,100737.41
2023-09-17T12:37:03.910Z,100740.03
2023-09-17T12:39:31.781Z,100728.28
2023-09-17T12:41:59.141Z,100725.50
2023-09-17T12:44:27.694Z,100718.16
2023-09-17T12:46:55.319Z,100714.72
2023-09-17T12:49:23.271Z,100719.38
2023-09-17T12:51:52.841Z,100721.09
2023-09-17T12:54:23.574Z,100709.72
2023-09-17T12:56:52.055Z,100709.75
2023-09-17T12:59:32.461Z,100711.00
2023-09-17T13:02:00.898Z,100704.03
2023-09-17T13:04:41.424Z,100711.31
2023-09-17T13:07:20.070Z,100703.84
2023-09-17T13:09:48.403Z,100698.47
2023-09-17T13:12:19.223Z,100706.63
2023-09-17T13:14:51.965Z,100698.81
2023-09-17T13:17:20.950Z,100707.44
2023-09-17T13:19:48.844Z,100697.72
2023-09-17T13:22:17.403Z,100693.25
2023-09-17T13:24:45.754Z,100687.84
2023-09-17T13:27:16.535Z,100692.06
2023-09-17T13:29:48.005Z,100686.81
2023-09-17T13:32:17.623Z,100675.97
2023-09-17T13:34:45.884Z,100689.72
2023-09-17T13:37:13.732Z,100684.22
2023-09-17T13:39:45.215Z,100686.63
2023-09-17T13:42:13.155Z,100677.97
2023-09-17T13:44:40.709Z,100675.94
2023-09-17T13:47:09.308Z,100666.88
2023-09-17T13:49:36.728Z,100678.06
2023-09-17T13:52:04.575Z,100670.13
2023-09-17T13:54:31.935Z,100667.38
2023-09-17T13:56:59.219Z,100669.91
2023-09-17T13:59:26.572Z,100661.97
2023-09-17T14:01:53.944Z,100663.56
2023-09-17T14:04:21.367Z,100672.03
2023-09-17T14:06:52.694Z,100676.16
2023-09-17T14:09:20.045Z,100667.56
2023-09-17T14:11:47.323Z,100669.19
2023-09-17T14:14:14.802Z,100668.16
2023-09-17T14:16:42.659Z,100669.69
2023-09-17T14:19:09.989Z,100666.91
2023-09-17T14:21:39.068Z,100660.81
2023-09-17T14:24:06.589Z,100653.44
2023-09-17T14:26:33.868Z,100655.88
2023-09-17T14:29:01.269Z,100652.25
2023-09-17T14:31:29.005Z,100641.63
2023-09-17T14:33:56.450Z,100645.09
2023-09-17T14:36:23.830Z,100635.38
2023-09-17T14:38:51.368Z,100626.50
2023-09-17T14:41:18.902Z,100629.00
2023-09-17T14:43:46.348Z,100627.31
2023-09-17T14:46:13.758Z,100632.50
2023-09-17T14:48:41.165Z,100633.53
2023-09-17T14:51:08.504Z,100616.78
2023-09-17T14:53:35.817Z,100620.22
2023-09-17T14:56:03.194Z,100615.72
2023-09-17T14:58:30.622Z,100612.88
2023-09-17T15:00:58.463Z,100617.81
2023-09-17T15:03:30.153Z,100611.59
2023-09-17T15:05:57.728Z,100615.06
2023-09-17T15:08:24.992Z,100612.47
2023-09-17T15:10:52.349Z,100608.00
2023-09-17T15:13:19.582Z,100604.47
2023-09-17T15:15:50.224Z,100598.41
2023-09-17T15:18:17.723Z,100603.38
2023-09-17T15:20:46.512Z,100594.41
2023-09-17T15:23:13.974Z,100594.50
2023-09-17T15:25:41.333Z,100599.56
2023-09-17T15:28:08.800Z,100592.50
2023-09-17T15:30:36.145Z,100594.19
2023-09-17T15:33:03.779Z,100590.59
2023-09-17T15:35:32.359Z,100581.84
2023-09-17T15:38:06.791Z,100587.91
2023-09-17T15:40:35.474Z,100579.94
2023-09-17T15:43:03.236Z,100583.25
2023-09-17T15:45:30.731Z,100577.91
2023-09-17T15:47:58.244Z,100577.72
2023-09-17T15:50:25.671Z,100569.88
2023-09-17T15:52:53.113Z,100557.66
2023-09-17T15:55:20.554Z,100562.81
2023-09-17T15:57:48.222Z,100561.06
2023-09-17T16:00:15.801Z,100560.97
2023-09-17T16:02:43.706Z,100554.81
2023-09-17T16:05:11.751Z,100555.56
2023-09-17T16:07:45.508Z,100558.03
2023-09-17T16:10:15.228Z,100561.34
2023-09-17T16:12:42.526Z,100554.25
2023-09-17T16:15:10.207Z,100556.75
2023-09-17T16:17:38.997Z,100550.59
2023-09-17T16:20:07.389Z,100552.25
2023-09-17T16:22:35.121Z,100553.91
2023-09-17T16:25:05.080Z,100550.41
2023-09-17T16:27:32.673Z,100550.28
2023-09-17T16:30:00.291Z,100551.09
2023-09-17T16:32:29.566Z,100551.91
2023-09-17T16:34:57.108Z,100555.34
2023-09-17T16:37:24.579Z,100557.03
2023-09-17T16:39:52.055Z,100559.59
2023-09-17T16:42:19.542Z,100550.03
2023-09-17T16:44:46.994Z,100558.59
2023-09-17T16:47:15.002Z,100554.22
2023-09-17T16:49:42.718Z,100548.13
2023-09-17T16:52:10.041Z,100543.78
2023-09-17T16:54:37.824Z,100538.53
2023-09-17T16:57:05.489Z,100538.44
2023-09-17T16:59:32.883Z,100536.66
2023-09-17T17:02:00.278Z,100538.34
2023-09-17T17:04:28.288Z,100540.84
2023-09-17T17:06:55.731Z,100530.41
2023-09-17T17:09:23.208Z,100536.38
2023-09-17T17:11:51.525Z,100536.28
2023-09-17T17:14:18.923Z,100528.44
2023-09-17T17:16:46.257Z,100530.09
2023-09-17T17:19:13.660Z,100532.59
2023-09-17T17:21:40.928Z,100528.19
2023-09-17T17:24:08.478Z,100530.75
2023-09-17T17:26:38.856Z,100515.94
2023-09-17T17:29:06.265Z,100521.94
2023-09-17T17:31:35.173Z,100515.91
2023-09-17T17:34:02.536Z,100516.78
2023-09-17T17:36:30.205Z,100522.78
2023-09-17T17:38:57.513Z,100523.56
2023-09-17T17:41:24.812Z,100518.31
2023-09-17T17:43:52.497Z,100513.09
2023-09-17T17:46:20.452Z,100510.47
2023-09-17T17:48:48.596Z,100512.09
2023-09-17T17:51:16.066Z,100510.28
2023-09-17T17:53:43.383Z,100501.53
2023-09-17T17:56:11.524Z,100503.25
2023-09-17T17:58:38.972Z,100503.22
2023-09-17T18:01:06.443Z,100508.38
2023-09-17T18:03:33.937Z,100497.97
2023-09-17T18:06:01.480Z,100497.09
2023-09-17T18:08:28.861Z,100492.75
2023-09-17T18:10:56.371Z,100492.66
2023-09-17T18:13:23.821Z,100487.44
2023-09-17T18:15:52.315Z,100492.59
2023-09-17T18:18:19.891Z,100489.09
2023-09-17T18:20:47.230Z,100495.91
2023-09-17T18:23:15.413Z,100483.78
2023-09-17T18:25:43.327Z,100489.75
2023-09-17T18:28:10.821Z,100482.72
2023-09-17T18:30:38.658Z,100481.78
2023-09-17T18:33:07.603Z,100480.88
2023-09-17T18:35:35.034Z,100482.53
2023-09-17T18:38:03.531Z,100480.72
2023-09-17T18:40:30.915Z,100487.59
2023-09-17T18:42:58.283Z,100477.19
2023-09-17T18:45:25.627Z,100476.25
2023-09-17T18:47:53.051Z,100471.81
2023-09-17T18:50:20.471Z,100470.91
2023-09-17T18:52:47.956Z,100470.94
2023-09-17T18:55:15.308Z,100474.38
2023-09-17T18:57:42.746Z,100474.41
2023-09-17T19:00:11.680Z,100468.31
2023-09-17T19:02:44.693Z,100476.09
2023-09-17T19:05:13.755Z,100470.13
2023-09-17T19:07:41.241Z,100471.00
2023-09-17T19:10:12.283Z,100472.75
2023-09-17T19:12:39.883Z,100469.19
2023-09-17T19:15:07.959Z,100468.31
2023-09-17T19:17:36.018Z,100474.41
2023-09-17T19:20:04.316Z,100471.00
2023-09-17T19:22:31.649Z,100468.41
2023-09-17T19:24:59.402Z,100469.25
2023-09-17T19:27:26.724Z,100468.38
2023-09-17T19:29:54.117Z,100458.88
2023-09-17T19:32:21.538Z,100450.28
2023-09-17T19:34:49.273Z,100460.94
2023-09-17T19:37:16.618Z,100457.44
2023-09-17T19:39:44.022Z,100460.91
2023-09-17T19:42:13.341Z,100458.31
2023-09-17T19:44:40.806Z,100463.44
2023-09-17T19:47:08.297Z,100463.50
2023-09-17T19:49:35.767Z,100452.31
2023-09-17T19:52:03.130Z,100460.03
2023-09-17T19:54:30.491Z,100460.88
2023-09-17T19:56:57.752Z,100452.22
2023-09-17T19:59:25.210Z,100447.94
2023-09-17T20:01:52.675Z,100449.94
2023-09-17T20:04:20.127Z,100447.31
2023-09-17T20:06:54.543Z,100444.56
2023-09-17T20:09:23.097Z,100435.00
2023-09-17T20:11:50.452Z,100435.72
2023-09-17T20:14:17.951Z,100433.41
2023-09-17T20:16:45.605Z,100429.84
2023-09-17T20:19:13.038Z,100431.56
2023-09-17T20:21:40.775Z,100421.03
2023-09-17T20:24:08.350Z,100424.63
2023-09-17T20:26:37.973Z,100424.50
2023-09-17T20:29:05.763Z,100423.59
2023-09-17T20:31:33.553Z,100415.66
2023-09-17T20:34:01.057Z,100419.03
2023-09-17T20:36:28.405Z,100419.91
2023-09-17T20:38:57.863Z,100419.06
2023-09-17T20:41:26.861Z,100410.38
2023-09-17T20:43:54.505Z,100414.69
2023-09-17T20:46:22.263Z,100410.25
2023-09-17T20:48:50.064Z,100405.88
2023-09-17T20:51:17.892Z,100410.19
2023-09-17T20:53:45.236Z,100412.13
2023-09-17T20:56:13.058Z,100416.44
2023-09-17T20:58:41.433Z,100405.28
2023-09-17T21:01:08.841Z,100406.78
2023-09-17T21:03:36.321Z,100396.34
2023-09-17T21:06:04.466Z,100402.13
2023-09-17T21:08:31.880Z,100404.59
2023-09-17T21:10:59.477Z,100402.03
2023-09-17T21:13:26.901Z,100401.25
2023-09-17T21:15:54.681Z,100402.81
2023-09-17T21:18:22.110Z,100398.16
2023-09-17T21:20:51.085Z,100398.97
2023-09-17T21:23:18.522Z,100396.25
2023-09-17T21:25:45.800Z,100396.13
2023-09-17T21:28:13.127Z,100392.59
2023-09-17T21:30:42.229Z,100389.84
2023-09-17T21:33:09.658Z,100393.22
2023-09-17T21:35:37.243Z,100391.50
2023-09-17T21:38:04.799Z,100385.38
2023-09-17T21:40:32.288Z,100388.84
2023-09-17T21:42:59.667Z,100392.31
2023-09-17T21:45:27.607Z,100386.97
2023-09-17T21:47:55.529Z,100386.91
2023-09-17T21:50:22.980Z,100384.91
2023-09-17T21:52:50.446Z,100383.84
2023-09-17T21:55:17.919Z,100385.41
2023-09-17T21:57:45.645Z,100388.78
2023-09-17T22:00:24.760Z,100389.47
2023-09-17T22:02:52.632Z,100379.13
2023-09-17T22:05:22.906Z,100379.03
2023-09-17T22:07:50.347Z,100378.94
2023-09-17T22:10:18.763Z,100374.56
2023-09-17T22:12:46.530Z,100382.25
2023-09-17T22:15:13.823Z,100382.13
2023-09-17T22:17:41.354Z,100372.59
2023-09-17T22:20:15.467Z,100381.16
2023-09-17T22:22:43.194Z,100370.78
2023-09-17T22:25:11.455Z,100371.56
2023-09-17T22:27:38.822Z,100372.38
2023-09-17T22:30:06.910Z,100367.16
2023-09-17T22:32:35.097Z,100364.59
2023-09-17T22:35:02.703Z,100361.84
2023-09-17T22:37:30.612Z,100360.09
2023-09-17T22:39:57.922Z,100354.88
2023-09-17T22:42:25.258Z,100363.41
2023-09-17T22:44:52.612Z,100360.78
2023-09-17T22:47:20.705Z,100365.00
2023-09-17T22:49:47.976Z,100364.97
2023-09-17T22:52:15.348Z,100359.75
2023-09-17T22:54:42.641Z,100360.56
2023-09-17T22:57:10.055Z,100362.25
2023-09-17T22:59:38.629Z,100356.06
2023-09-17T23:02:06.297Z,100349.94
2023-09-17T23:04:33.634Z,100350.66
2023-09-17T23:07:01.553Z,100352.31
2023-09-17T23:09:28.954Z,100359.88
2023-09-17T23:11:56.216Z,100355.50
2023-09-17T23:14:23.673Z,100357.97
2023-09-17T23:16:51.007Z,100354.41
2023-09-17T23:19:18.341Z,100358.66
2023-09-17T23:21:45.991Z,100358.56
2023-09-17T23:24:13.238Z,100363.59
2023-09-17T23:26:41.108Z,100366.09
2023-09-17T23:29:09.656Z,100362.50
2023-09-17T23:31:39.062Z,100365.88
2023-09-17T23:34:06.832Z,100362.41
2023-09-17T23:36:35.415Z,100367.56
2023-09-17T23:39:03.057Z,100360.66
2023-09-17T23:41:30.678Z,100364.06
2023-09-17T23:43:58.123Z,100358.78
2023-09-17T23:46:25.560Z,100358.69
2023-09-17T23:48:53.056Z,100359.50
2023-09-17T23:51:20.572Z,100357.81
2023-09-17T23:53:47.815Z,100344.09
2023-09-17T23:56:15.440Z,100345.88
2023-09-17T23:58:42.788Z,100343.44
